createdAt,value
2023-03-18T00:00:34.256Z,4.35
2023-03-18T00:01:38.778Z,4.65
2023-03-18T00:02:42.860Z,4.28
2023-03-18T00:03:48.674Z,4.38
2023-03-18T00:04:53.052Z,5.13
2023-03-18T00:06:14.306Z,4.65
2023-03-18T00:07:20.091Z,3.97
2023-03-18T00:08:25.558Z,4.63
2023-03-18T00:09:29.407Z,4.38
2023-03-18T00:10:35.197Z,5.28
2023-03-18T00:11:39.627Z,5.18
2023-03-18T00:12:44.019Z,3.90
2023-03-18T00:13:49.208Z,4.03
2023-03-18T00:14:53.775Z,3.40
2023-03-18T00:15:58.285Z,4.57
2023-03-18T00:17:02.070Z,3.83
2023-03-18T00:18:06.838Z,3.50
2023-03-18T00:19:10.593Z,4.25
2023-03-18T00:20:18.440Z,4.03
2023-03-18T00:21:23.677Z,3.58
2023-03-18T00:22:27.744Z,4.30
2023-03-18T00:23:33.604Z,4.65
2023-03-18T00:24:37.970Z,4.80
2023-03-18T00:25:47.895Z,3.97
2023-03-18T00:26:52.080Z,4.55
2023-03-18T00:27:56.067Z,3.83
2023-03-18T00:28:59.961Z,3.60
2023-03-18T00:30:12.813Z,4.13
2023-03-18T00:31:18.196Z,4.32
2023-03-18T00:32:22.982Z,3.55
2023-03-18T00:33:26.799Z,5.20
2023-03-18T00:34:30.707Z,3.63
2023-03-18T00:35:34.908Z,3.88
2023-03-18T00:36:40.813Z,4.72
2023-03-18T00:37:45.330Z,4.57
2023-03-18T00:38:51.225Z,4.47
2023-03-18T00:39:55.101Z,3.83
2023-03-18T00:41:11.779Z,3.85
2023-03-18T00:42:18.695Z,4.05
2023-03-18T00:43:29.507Z,4.40
2023-03-18T00:44:33.224Z,4.57
2023-03-18T00:45:43.335Z,3.47
2023-03-18T00:46:47.609Z,4.00
2023-03-18T00:47:51.249Z,5.40
2023-03-18T00:49:12.447Z,4.50
2023-03-18T00:50:17.392Z,3.97
2023-03-18T00:51:24.528Z,4.43
2023-03-18T00:52:31.061Z,4.32
2023-03-18T00:53:35.642Z,5.00
2023-03-18T00:54:39.442Z,4.38
2023-03-18T00:55:43.904Z,4.70
2023-03-18T00:56:47.799Z,5.32
2023-03-18T00:57:51.602Z,3.70
2023-03-18T00:58:55.125Z,4.43
2023-03-18T00:59:59.500Z,4.10
2023-03-18T01:01:08.192Z,5.00
2023-03-18T01:02:15.707Z,4.40
2023-03-18T01:03:19.801Z,3.47
2023-03-18T01:04:24.922Z,4.50
2023-03-18T01:05:28.557Z,4.45
2023-03-18T01:06:37.543Z,4.82
2023-03-18T01:07:41.774Z,3.63
2023-03-18T01:08:45.638Z,4.30
2023-03-18T01:09:52.686Z,3.95
2023-03-18T01:11:07.561Z,4.25
2023-03-18T01:12:13.349Z,4.03
2023-03-18T01:13:17.506Z,4.40
2023-03-18T01:14:21.152Z,4.43
2023-03-18T01:15:25.814Z,4.55
2023-03-18T01:16:30.168Z,4.40
2023-03-18T01:17:34.122Z,4.90
2023-03-18T01:18:38.755Z,3.88
2023-03-18T01:19:43.571Z,3.72
2023-03-18T01:20:47.294Z,4.30
2023-03-18T01:21:51.238Z,4.18
2023-03-18T01:22:55.155Z,3.67
2023-03-18T01:24:00.767Z,4.53
2023-03-18T01:25:05.180Z,3.92
2023-03-18T01:26:13.762Z,4.20
2023-03-18T01:27:17.341Z,3.65
2023-03-18T01:28:22.991Z,4.43
2023-03-18T01:29:27.156Z,4.70
2023-03-18T01:30:32.247Z,3.88
2023-03-18T01:31:36.753Z,3.97
2023-03-18T01:32:41.700Z,4.38
2023-03-18T01:33:46.245Z,4.50
2023-03-18T01:34:51.872Z,3.83
2023-03-18T01:35:59.966Z,4.53
2023-03-18T01:37:05.602Z,3.97
2023-03-18T01:38:10.088Z,3.65
2023-03-18T01:39:15.515Z,3.40
2023-03-18T01:40:21.498Z,4.15
2023-03-18T01:41:26.856Z,4.57
2023-03-18T01:42:34.393Z,4.13
2023-03-18T01:43:43.105Z,4.90
2023-03-18T01:44:47.215Z,3.88
2023-03-18T01:45:59.259Z,5.45
2023-03-18T01:47:02.936Z,4.30
2023-03-18T01:48:07.617Z,3.97
2023-03-18T01:49:31.157Z,4.72
2023-03-18T01:50:38.176Z,3.92
2023-03-18T01:51:48.534Z,3.72
2023-03-18T01:53:17.912Z,4.10
2023-03-18T01:54:25.296Z,3.67
2023-03-18T01:55:33.399Z,3.83
2023-03-18T01:56:44.261Z,3.35
2023-03-18T01:57:50.355Z,4.57
2023-03-18T01:58:57.684Z,3.50
2023-03-18T02:00:04.227Z,3.65
2023-03-18T02:01:20.545Z,4.25
2023-03-18T02:02:26.327Z,3.65
2023-03-18T02:03:34.144Z,4.30
2023-03-18T02:04:44.892Z,4.18
2023-03-18T02:05:51.091Z,3.78
2023-03-18T02:07:08.106Z,4.95
2023-03-18T02:08:13.282Z,4.00
2023-03-18T02:09:17.509Z,3.13
2023-03-18T02:10:27.904Z,3.97
2023-03-18T02:11:39.628Z,4.13
2023-03-18T02:12:49.172Z,3.72
2023-03-18T02:13:53.339Z,5.45
2023-03-18T02:14:58.898Z,3.85
2023-03-18T02:16:14.048Z,3.47
2023-03-18T02:17:25.406Z,4.70
2023-03-18T02:18:38.994Z,4.22
2023-03-18T02:20:24.823Z,4.57
2023-03-18T02:21:46.804Z,4.35
2023-03-18T02:23:03.385Z,3.22
2023-03-18T02:24:32.749Z,3.65
2023-03-18T02:26:39.921Z,3.40
2023-03-18T02:27:49.897Z,3.63
2023-03-18T02:29:00.069Z,2.83
2023-03-18T02:30:23.576Z,3.25
2023-03-18T02:31:27.573Z,3.95
2023-03-18T02:32:36.212Z,3.45
2023-03-18T02:33:48.101Z,4.03
2023-03-18T02:34:53.510Z,4.18
2023-03-18T02:36:06.050Z,3.90
2023-03-18T02:37:10.040Z,4.10
2023-03-18T02:38:14.621Z,3.85
2023-03-18T02:39:18.545Z,4.43
2023-03-18T02:40:30.278Z,4.35
2023-03-18T02:41:40.821Z,5.10
2023-03-18T02:42:46.792Z,4.18
2023-03-18T02:43:52.006Z,4.13
2023-03-18T02:44:55.760Z,5.55
2023-03-18T02:46:31.896Z,4.22
2023-03-18T02:47:36.204Z,5.03
2023-03-18T02:48:45.419Z,3.83
2023-03-18T02:49:50.452Z,4.20
2023-03-18T02:50:56.309Z,4.63
2023-03-18T02:52:00.237Z,3.90
2023-03-18T02:53:05.932Z,4.88
2023-03-18T02:54:15.527Z,4.35
2023-03-18T02:55:19.788Z,4.78
2023-03-18T02:56:25.039Z,4.30
2023-03-18T02:57:28.506Z,4.63
2023-03-18T02:58:32.496Z,4.15
2023-03-18T02:59:39.052Z,3.78
2023-03-18T03:00:42.958Z,4.70
2023-03-18T03:01:50.706Z,4.60
2023-03-18T03:02:54.773Z,4.50
2023-03-18T03:03:58.531Z,4.40
2023-03-18T03:05:02.280Z,4.55
2023-03-18T03:06:10.619Z,3.53
2023-03-18T03:07:14.211Z,3.80
2023-03-18T03:08:17.706Z,5.53
2023-03-18T03:09:22.832Z,4.15
2023-03-18T03:10:26.822Z,4.00
2023-03-18T03:11:31.999Z,3.78
2023-03-18T03:12:38.111Z,5.43
2023-03-18T03:13:45.485Z,3.70
2023-03-18T03:14:49.284Z,4.47
2023-03-18T03:15:54.465Z,4.25
2023-03-18T03:16:59.024Z,5.43
2023-03-18T03:18:04.077Z,4.57
2023-03-18T03:19:08.675Z,4.95
2023-03-18T03:20:14.011Z,3.60
2023-03-18T03:21:18.784Z,4.57
2023-03-18T03:22:23.426Z,3.58
2023-03-18T03:23:28.585Z,3.90
2023-03-18T03:24:32.532Z,3.15
2023-03-18T03:25:37.681Z,4.78
2023-03-18T03:26:41.397Z,3.40
2023-03-18T03:27:45.348Z,3.42
2023-03-18T03:28:49.443Z,2.88
2023-03-18T03:29:53.097Z,4.45
2023-03-18T03:30:58.362Z,3.47
2023-03-18T03:32:03.442Z,3.22
2023-03-18T03:33:10.811Z,4.72
2023-03-18T03:34:14.772Z,3.08
2023-03-18T03:35:22.393Z,4.18
2023-03-18T03:36:26.189Z,3.45
2023-03-18T03:37:30.365Z,3.30
2023-03-18T03:38:35.034Z,3.67
2023-03-18T03:39:38.820Z,3.28
2023-03-18T03:40:43.723Z,3.92
2023-03-18T03:41:47.449Z,3.25
2023-03-18T03:42:51.138Z,4.53
2023-03-18T03:43:55.157Z,3.30
2023-03-18T03:44:58.920Z,3.78
2023-03-18T03:46:02.873Z,4.00
2023-03-18T03:47:07.496Z,4.10
2023-03-18T03:48:13.159Z,3.85
2023-03-18T03:49:17.174Z,4.25
2023-03-18T03:50:21.678Z,4.10
2023-03-18T03:51:25.624Z,4.18
2023-03-18T03:52:29.645Z,4.40
2023-03-18T03:53:36.130Z,3.70
2023-03-18T03:54:42.034Z,2.95
2023-03-18T03:55:45.482Z,3.97
2023-03-18T03:56:49.107Z,4.07
2023-03-18T03:57:52.790Z,4.00
2023-03-18T03:58:56.705Z,3.63
2023-03-18T04:00:01.122Z,4.30
2023-03-18T04:01:06.641Z,4.50
2023-03-18T04:02:11.218Z,3.40
2023-03-18T04:03:15.610Z,4.25
2023-03-18T04:04:19.585Z,4.25
2023-03-18T04:05:26.099Z,2.78
2023-03-18T04:06:31.363Z,3.78
2023-03-18T04:07:35.021Z,3.90
2023-03-18T04:08:38.533Z,4.57
2023-03-18T04:09:42.432Z,3.25
2023-03-18T04:10:46.119Z,4.30
2023-03-18T04:11:49.826Z,4.07
2023-03-18T04:12:54.438Z,3.83
2023-03-18T04:13:58.183Z,4.63
2023-03-18T04:15:02.303Z,4.03
2023-03-18T04:16:07.893Z,3.35
2023-03-18T04:17:11.714Z,3.80
2023-03-18T04:18:17.092Z,3.53
2023-03-18T04:19:20.935Z,4.07
2023-03-18T04:20:24.563Z,3.75
2023-03-18T04:21:28.669Z,3.88
2023-03-18T04:22:32.892Z,4.55
2023-03-18T04:23:37.742Z,4.70
2023-03-18T04:24:42.678Z,3.67
2023-03-18T04:25:46.254Z,4.37
2023-03-18T04:26:50.543Z,4.22
2023-03-18T04:27:54.193Z,3.75
2023-03-18T04:28:58.335Z,4.18
2023-03-18T04:30:02.404Z,4.05
2023-03-18T04:31:06.497Z,3.67
2023-03-18T04:32:11.155Z,3.58
2023-03-18T04:33:15.046Z,4.25
2023-03-18T04:34:18.744Z,4.63
2023-03-18T04:35:23.593Z,4.05
2023-03-18T04:36:28.628Z,4.25
2023-03-18T04:37:37.086Z,3.92
2023-03-18T04:38:41.406Z,3.90
2023-03-18T04:39:45.010Z,4.50
2023-03-18T04:40:48.919Z,4.45
2023-03-18T04:41:52.832Z,3.47
2023-03-18T04:42:56.711Z,4.32
2023-03-18T04:44:00.608Z,5.00
2023-03-18T04:45:06.433Z,4.07
2023-03-18T04:46:12.231Z,4.30
2023-03-18T04:47:16.837Z,3.85
2023-03-18T04:48:20.782Z,4.55
2023-03-18T04:49:25.401Z,4.63
2023-03-18T04:50:29.427Z,5.45
2023-03-18T04:51:33.308Z,3.78
2023-03-18T04:52:37.259Z,4.68
2023-03-18T04:53:40.796Z,4.20
2023-03-18T04:54:44.622Z,4.20
2023-03-18T04:55:50.888Z,4.47
2023-03-18T04:56:54.787Z,3.97
2023-03-18T04:57:58.707Z,3.60
2023-03-18T04:59:02.486Z,4.45
2023-03-18T05:00:11.607Z,4.00
2023-03-18T05:01:15.744Z,3.75
2023-03-18T05:02:19.958Z,4.55
2023-03-18T05:03:24.056Z,3.85
2023-03-18T05:04:28.349Z,4.60
2023-03-18T05:05:32.233Z,4.32
2023-03-18T05:06:37.397Z,4.13
2023-03-18T05:07:42.496Z,3.72
2023-03-18T05:08:46.320Z,4.03
2023-03-18T05:09:50.002Z,4.22
2023-03-18T05:10:53.897Z,4.53
2023-03-18T05:11:58.395Z,4.53
2023-03-18T05:13:03.698Z,4.53
2023-03-18T05:14:07.747Z,4.22
2023-03-18T05:15:13.318Z,4.25
2023-03-18T05:16:17.035Z,4.28
2023-03-18T05:17:21.672Z,4.45
2023-03-18T05:18:25.289Z,4.72
2023-03-18T05:19:29.305Z,3.72
2023-03-18T05:20:33.045Z,5.68
2023-03-18T05:21:37.541Z,4.65
2023-03-18T05:22:41.499Z,3.72
2023-03-18T05:23:45.481Z,3.55
2023-03-18T05:24:49.837Z,3.78
2023-03-18T05:25:54.072Z,4.88
2023-03-18T05:26:57.745Z,3.90
2023-03-18T05:28:02.066Z,5.10
2023-03-18T05:29:05.693Z,4.50
2023-03-18T05:30:11.356Z,5.70
2023-03-18T05:31:15.353Z,3.65
2023-03-18T05:32:19.482Z,2.85
2023-03-18T05:33:23.615Z,4.03
2023-03-18T05:34:27.605Z,4.10
2023-03-18T05:35:31.519Z,3.85
2023-03-18T05:36:35.685Z,3.83
2023-03-18T05:37:39.460Z,4.20
2023-03-18T05:38:43.426Z,3.92
2023-03-18T05:39:47.271Z,3.38
2023-03-18T05:40:51.292Z,3.78
2023-03-18T05:41:54.882Z,4.55
2023-03-18T05:42:58.591Z,4.65
2023-03-18T05:44:02.781Z,3.58
2023-03-18T05:45:07.935Z,4.00
2023-03-18T05:46:11.975Z,4.18
2023-03-18T05:47:16.736Z,4.35
2023-03-18T05:48:21.367Z,4.47
2023-03-18T05:49:26.165Z,4.75
2023-03-18T05:50:35.588Z,3.70
2023-03-18T05:51:39.618Z,4.35
2023-03-18T05:52:44.152Z,3.22
2023-03-18T05:53:47.773Z,4.18
2023-03-18T05:54:51.790Z,3.85
2023-03-18T05:55:56.569Z,3.58
2023-03-18T05:57:00.267Z,3.88
2023-03-18T05:58:04.707Z,3.20
2023-03-18T05:59:10.152Z,2.92
2023-03-18T06:00:15.779Z,3.78
2023-03-18T06:01:20.319Z,3.22
2023-03-18T06:02:27.007Z,3.35
2023-03-18T06:03:30.964Z,4.10
2023-03-18T06:04:34.924Z,3.45
2023-03-18T06:05:38.806Z,3.95
2023-03-18T06:06:42.795Z,4.40
2023-03-18T06:07:47.020Z,3.42
2023-03-18T06:08:50.594Z,3.47
2023-03-18T06:09:54.301Z,4.18
2023-03-18T06:10:59.014Z,4.15
2023-03-18T06:12:03.664Z,3.05
2023-03-18T06:13:10.082Z,3.45
2023-03-18T06:14:14.929Z,3.10
2023-03-18T06:15:21.559Z,4.05
2023-03-18T06:16:25.859Z,3.50
2023-03-18T06:17:29.611Z,3.90
2023-03-18T06:18:34.139Z,3.67
2023-03-18T06:19:38.286Z,4.18
2023-03-18T06:20:42.002Z,3.72
2023-03-18T06:21:45.618Z,4.78
2023-03-18T06:22:50.093Z,2.90
2023-03-18T06:23:54.649Z,2.95
2023-03-18T06:24:59.067Z,4.20
2023-03-18T06:26:03.857Z,3.22
2023-03-18T06:27:07.682Z,3.08
2023-03-18T06:28:11.332Z,3.80
2023-03-18T06:29:15.356Z,3.88
2023-03-18T06:30:20.065Z,3.55
2023-03-18T06:31:23.931Z,4.18
2023-03-18T06:32:28.280Z,3.20
2023-03-18T06:33:35.271Z,3.35
2023-03-18T06:34:39.104Z,3.45
2023-03-18T06:35:43.012Z,3.08
2023-03-18T06:36:47.655Z,3.28
2023-03-18T06:37:51.312Z,2.97
2023-03-18T06:38:56.172Z,3.78
2023-03-18T06:40:00.616Z,3.05
2023-03-18T06:41:04.995Z,2.72
2023-03-18T06:42:10.333Z,3.20
2023-03-18T06:43:15.539Z,4.30
2023-03-18T06:44:19.353Z,3.33
2023-03-18T06:45:23.512Z,3.60
2023-03-18T06:46:29.547Z,2.95
2023-03-18T06:47:33.559Z,3.45
2023-03-18T06:48:40.609Z,3.00
2023-03-18T06:49:44.674Z,3.60
2023-03-18T06:50:50.041Z,2.90
2023-03-18T06:51:54.632Z,3.38
2023-03-18T06:52:59.458Z,4.10
2023-03-18T06:54:02.993Z,3.00
2023-03-18T06:55:07.836Z,3.40
2023-03-18T06:56:15.923Z,4.13
2023-03-18T06:57:20.588Z,2.90
2023-03-18T06:58:24.871Z,3.45
2023-03-18T06:59:28.525Z,2.63
2023-03-18T07:00:34.307Z,4.35
2023-03-18T07:01:38.372Z,3.00
2023-03-18T07:02:43.566Z,3.78
2023-03-18T07:03:47.347Z,4.38
2023-03-18T07:04:52.590Z,6.53
2023-03-18T07:05:56.237Z,5.43
2023-03-18T07:07:00.726Z,4.03
2023-03-18T07:08:04.519Z,4.05
2023-03-18T07:09:11.310Z,3.42
2023-03-18T07:10:30.791Z,4.05
2023-03-18T07:11:34.396Z,4.03
2023-03-18T07:12:38.032Z,3.63
2023-03-18T07:13:42.190Z,3.88
2023-03-18T07:14:47.483Z,3.85
2023-03-18T07:15:52.565Z,3.85
2023-03-18T07:16:59.306Z,3.60
2023-03-18T07:18:05.379Z,3.20
2023-03-18T07:19:10.019Z,2.65
2023-03-18T07:20:15.416Z,3.70
2023-03-18T07:21:19.805Z,2.83
2023-03-18T07:22:24.752Z,3.60
2023-03-18T07:23:29.039Z,3.42
2023-03-18T07:24:33.339Z,3.53
2023-03-18T07:25:37.485Z,4.55
2023-03-18T07:26:41.687Z,3.50
2023-03-18T07:27:45.751Z,3.53
2023-03-18T07:28:50.063Z,4.72
2023-03-18T07:29:54.392Z,3.30
2023-03-18T07:30:57.989Z,3.45
2023-03-18T07:32:01.915Z,4.35
2023-03-18T07:33:06.424Z,2.95
2023-03-18T07:34:11.231Z,3.10
2023-03-18T07:35:16.029Z,4.13
2023-03-18T07:36:19.802Z,3.47
2023-03-18T07:37:24.273Z,3.58
2023-03-18T07:38:28.132Z,2.97
2023-03-18T07:39:31.990Z,3.25
2023-03-18T07:40:37.190Z,3.78
2023-03-18T07:41:43.427Z,3.30
2023-03-18T07:42:48.191Z,3.25
2023-03-18T07:43:52.724Z,3.67
2023-03-18T07:44:56.840Z,2.75
2023-03-18T07:46:01.355Z,3.33
2023-03-18T07:47:05.709Z,3.15
2023-03-18T07:48:09.501Z,3.22
2023-03-18T07:49:14.120Z,3.30
2023-03-18T07:50:18.548Z,3.55
2023-03-18T07:51:23.429Z,2.97
2023-03-18T07:52:29.553Z,3.58
2023-03-18T07:53:33.979Z,3.97
2023-03-18T07:54:38.034Z,2.92
2023-03-18T07:55:42.194Z,3.03
2023-03-18T07:56:46.535Z,2.97
2023-03-18T07:57:50.178Z,3.60
2023-03-18T07:58:54.178Z,3.03
2023-03-18T07:59:58.176Z,3.28
2023-03-18T08:01:02.431Z,2.97
2023-03-18T08:02:09.020Z,2.85
2023-03-18T08:03:14.187Z,2.90
2023-03-18T08:04:20.688Z,3.22
2023-03-18T08:05:25.717Z,3.83
2023-03-18T08:06:29.614Z,3.58
2023-03-18T08:07:36.319Z,3.50
2023-03-18T08:08:41.947Z,2.20
2023-03-18T08:09:46.096Z,3.38
2023-03-18T08:10:50.513Z,2.85
2023-03-18T08:11:55.017Z,3.22
2023-03-18T08:12:58.871Z,3.05
2023-03-18T08:14:02.592Z,3.30
2023-03-18T08:15:09.343Z,3.05
2023-03-18T08:16:13.786Z,3.05
2023-03-18T08:17:17.900Z,3.15
2023-03-18T08:18:22.593Z,2.63
2023-03-18T08:19:27.449Z,3.55
2023-03-18T08:20:32.158Z,3.15
2023-03-18T08:21:36.735Z,2.75
2023-03-18T08:22:41.234Z,2.70
2023-03-18T08:23:45.506Z,2.85
2023-03-18T08:24:50.587Z,2.30
2023-03-18T08:25:55.077Z,3.10
2023-03-18T08:26:58.917Z,3.20
2023-03-18T08:28:02.808Z,3.00
2023-03-18T08:29:16.235Z,2.88
2023-03-18T08:30:20.315Z,3.05
2023-03-18T08:31:24.291Z,3.42
2023-03-18T08:32:28.077Z,3.30
2023-03-18T08:33:32.358Z,2.85
2023-03-18T08:34:37.279Z,3.13
2023-03-18T08:35:42.718Z,3.03
2023-03-18T08:36:46.690Z,3.03
2023-03-18T08:37:51.782Z,3.03
2023-03-18T08:38:56.631Z,4.10
2023-03-18T08:40:00.377Z,2.95
2023-03-18T08:41:07.338Z,3.78
2023-03-18T08:42:12.450Z,2.53
2023-03-18T08:43:16.905Z,3.00
2023-03-18T08:44:20.589Z,4.13
2023-03-18T08:45:24.553Z,3.17
2023-03-18T08:46:29.040Z,2.35
2023-03-18T08:47:32.713Z,3.05
2023-03-18T08:48:36.437Z,3.13
2023-03-18T08:49:40.474Z,3.22
2023-03-18T08:50:47.107Z,2.78
2023-03-18T08:51:51.884Z,3.33
2023-03-18T08:53:05.930Z,3.08
2023-03-18T08:54:09.458Z,3.20
2023-03-18T08:55:13.933Z,2.58
2023-03-18T08:56:17.412Z,2.50
2023-03-18T08:57:20.979Z,2.55
2023-03-18T08:58:24.492Z,3.45
2023-03-18T08:59:28.071Z,3.25
2023-03-18T09:00:33.858Z,2.75
2023-03-18T09:01:38.459Z,2.20
2023-03-18T09:02:42.054Z,3.10
2023-03-18T09:03:47.019Z,2.78
2023-03-18T09:04:51.336Z,2.85
2023-03-18T09:05:55.658Z,3.28
2023-03-18T09:07:03.241Z,2.65
2023-03-18T09:08:07.078Z,2.83
2023-03-18T09:09:11.695Z,2.67
2023-03-18T09:10:18.440Z,2.88
2023-03-18T09:11:24.056Z,2.70
2023-03-18T09:12:27.577Z,2.45
2023-03-18T09:13:31.276Z,1.75
2023-03-18T09:14:35.058Z,2.85
2023-03-18T09:15:39.493Z,2.58
2023-03-18T09:16:43.396Z,3.33
2023-03-18T09:18:03.695Z,2.55
2023-03-18T09:19:13.007Z,2.95
2023-03-18T09:20:18.413Z,3.25
2023-03-18T09:21:22.578Z,2.90
2023-03-18T09:22:26.608Z,2.70
2023-03-18T09:23:30.549Z,2.35
2023-03-18T09:24:35.073Z,2.25
2023-03-18T09:25:42.716Z,2.28
2023-03-18T09:26:51.318Z,2.40
2023-03-18T09:27:55.097Z,2.22
2023-03-18T09:29:01.378Z,2.25
2023-03-18T09:30:08.089Z,2.13
2023-03-18T09:31:13.154Z,2.60
2023-03-18T09:32:20.029Z,2.45
2023-03-18T09:33:25.590Z,1.90
2023-03-18T09:34:32.289Z,3.05
2023-03-18T09:35:36.703Z,3.00
2023-03-18T09:36:42.246Z,2.25
2023-03-18T09:37:46.510Z,2.42
2023-03-18T09:38:50.259Z,2.35
2023-03-18T09:39:54.772Z,1.95
2023-03-18T09:41:09.931Z,2.67
2023-03-18T09:42:44.135Z,2.47
2023-03-18T09:44:25.623Z,1.75
2023-03-18T09:45:49.777Z,1.73
2023-03-18T09:47:38.789Z,2.05
2023-03-18T09:49:13.363Z,2.78
2023-03-18T09:50:39.168Z,2.60
2023-03-18T09:51:48.781Z,2.42
2023-03-18T09:53:16.553Z,2.05
2023-03-18T09:55:11.713Z,2.42
2023-03-18T09:56:25.645Z,2.90
2023-03-18T09:57:44.390Z,2.65
2023-03-18T09:59:21.679Z,3.10
2023-03-18T10:00:34.109Z,2.33
2023-03-18T10:01:40.302Z,1.92
2023-03-18T10:03:06.493Z,1.83
2023-03-18T10:04:26.770Z,2.42
2023-03-18T10:05:52.335Z,2.83
2023-03-18T10:07:15.293Z,2.45
2023-03-18T10:09:02.186Z,3.25
2023-03-18T10:10:26.664Z,2.15
2023-03-18T10:11:41.842Z,2.17
2023-03-18T10:13:21.703Z,2.88
2023-03-18T10:14:49.472Z,2.28
2023-03-18T10:16:02.499Z,2.67
2023-03-18T10:17:30.422Z,3.22
2023-03-18T10:18:43.490Z,2.75
2023-03-18T10:19:53.822Z,2.67
2023-03-18T10:21:25.754Z,2.60
2023-03-18T10:22:55.502Z,2.55
2023-03-18T10:24:55.789Z,3.30
2023-03-18T10:26:16.070Z,2.05
2023-03-18T10:27:53.774Z,2.75
2023-03-18T10:29:34.355Z,2.03
2023-03-18T10:31:05.126Z,3.17
2023-03-18T10:32:49.484Z,2.85
2023-03-18T10:34:06.718Z,2.67
2023-03-18T10:35:53.568Z,2.45
2023-03-18T10:37:18.238Z,2.30
2023-03-18T10:38:45.035Z,2.70
2023-03-18T10:39:50.388Z,2.85
2023-03-18T10:40:55.759Z,1.75
2023-03-18T10:42:25.150Z,2.70
2023-03-18T10:43:35.332Z,2.88
2023-03-18T10:44:42.624Z,2.80
2023-03-18T10:45:52.558Z,3.38
2023-03-18T10:47:10.874Z,3.10
2023-03-18T10:48:34.879Z,2.63
2023-03-18T10:50:15.789Z,2.65
2023-03-18T10:51:50.248Z,2.72
2023-03-18T10:53:23.495Z,2.17
2023-03-18T10:54:40.059Z,3.30
2023-03-18T10:56:04.757Z,3.10
2023-03-18T10:57:17.090Z,2.28
2023-03-18T10:58:24.071Z,1.83
2023-03-18T10:59:30.148Z,2.25
2023-03-18T11:00:34.970Z,2.08
2023-03-18T14:29:50.070Z,2.50
2023-03-18T14:31:26.909Z,2.30
2023-03-18T14:32:33.929Z,1.88
2023-03-18T14:33:58.338Z,2.65
2023-03-18T14:35:16.888Z,2.22
2023-03-18T14:36:47.136Z,1.83
2023-03-18T14:38:04.950Z,2.35
2023-03-18T14:39:18.039Z,1.70
2023-03-18T14:40:23.820Z,2.00
2023-03-18T14:41:31.118Z,1.80
2023-03-18T14:42:46.190Z,1.48
2023-03-18T14:44:43.581Z,1.65
2023-03-18T14:45:53.646Z,1.67
2023-03-18T14:47:25.317Z,1.73
2023-03-18T14:48:40.574Z,1.70
2023-03-18T14:50:06.216Z,1.50
2023-03-18T14:51:23.980Z,1.65
2023-03-18T14:52:43.194Z,2.55
2023-03-18T14:53:59.160Z,1.70
2023-03-18T14:55:18.161Z,1.70
2023-03-18T14:56:31.382Z,2.20
2023-03-18T14:57:34.958Z,2.17
2023-03-18T14:58:38.551Z,2.10
2023-03-18T14:59:45.226Z,1.52
2023-03-18T15:02:38.424Z,1.45
2023-03-18T15:03:52.268Z,1.70
2023-03-18T15:05:02.472Z,2.25
2023-03-18T15:06:08.081Z,1.83
2023-03-18T15:07:14.468Z,1.90
2023-03-18T15:08:47.731Z,1.58
2023-03-18T15:09:54.385Z,1.75
2023-03-18T15:11:02.924Z,1.60
2023-03-18T15:12:28.053Z,1.63
2023-03-18T15:13:32.720Z,2.45
2023-03-18T15:14:38.143Z,1.60
2023-03-18T15:15:42.925Z,1.45
2023-03-18T15:16:59.982Z,1.90
2023-03-18T15:18:26.584Z,1.58
2023-03-18T15:19:31.628Z,1.70
2023-03-18T15:20:37.031Z,1.85
2023-03-18T15:21:41.018Z,1.20
2023-03-18T15:22:45.603Z,1.55
2023-03-18T15:23:57.501Z,1.77
2023-03-18T15:25:09.009Z,1.50
2023-03-18T15:26:36.609Z,1.85
2023-03-18T15:27:41.074Z,1.55
2023-03-18T15:28:48.425Z,1.85
2023-03-18T15:30:02.304Z,1.52
2023-03-18T15:31:06.604Z,1.27
2023-03-18T15:32:26.652Z,1.63
2023-03-18T15:33:40.160Z,1.67
2023-03-18T15:34:59.445Z,1.27
2023-03-18T15:36:17.922Z,1.40
2023-03-18T15:37:40.780Z,1.98
2023-03-18T15:38:51.337Z,1.40
2023-03-18T15:39:59.037Z,1.98
2023-03-18T15:41:12.129Z,1.40
2023-03-18T15:42:22.047Z,1.42
2023-03-18T15:43:46.782Z,1.50
2023-03-18T15:45:00.754Z,1.40
2023-03-18T15:46:27.861Z,1.65
2023-03-18T15:47:33.651Z,2.05
2023-03-18T15:48:55.004Z,2.17
2023-03-18T15:50:25.913Z,1.25
2023-03-18T15:51:45.377Z,1.10
2023-03-18T15:52:49.191Z,1.42
2023-03-18T15:54:06.447Z,2.00
2023-03-18T15:55:35.750Z,1.67
2023-03-18T15:56:52.675Z,1.00
2023-03-18T15:57:58.867Z,2.28
2023-03-18T15:59:20.006Z,1.33
2023-03-18T16:00:28.234Z,1.23
2023-03-18T16:01:33.109Z,1.48
2023-03-18T16:02:37.579Z,1.80
2023-03-18T16:03:43.346Z,2.00
2023-03-18T16:04:48.651Z,1.27
2023-03-18T16:05:54.627Z,1.77
2023-03-18T16:06:59.749Z,1.80
2023-03-18T16:08:11.460Z,2.00
2023-03-18T16:09:22.476Z,1.95
2023-03-18T16:10:26.865Z,1.75
2023-03-18T16:11:32.644Z,1.95
2023-03-18T16:12:41.903Z,1.20
2023-03-18T16:13:46.169Z,1.80
2023-03-18T16:14:52.654Z,1.60
2023-03-18T16:15:56.883Z,1.88
2023-03-18T16:17:00.729Z,1.35
2023-03-18T16:18:08.861Z,2.35
2023-03-18T16:19:31.159Z,1.55
2023-03-18T16:20:34.869Z,2.00
2023-03-18T16:21:41.676Z,2.13
2023-03-18T16:22:45.630Z,1.05
2023-03-18T16:23:49.301Z,1.60
2023-03-18T16:24:56.369Z,1.85
2023-03-18T16:26:00.553Z,2.10
2023-03-18T16:27:27.991Z,1.55
2023-03-18T16:28:31.933Z,1.42
2023-03-18T16:29:40.836Z,1.52
2023-03-18T16:30:48.083Z,1.95
2023-03-18T16:31:51.730Z,2.53
2023-03-18T16:32:57.201Z,1.73
2023-03-18T16:34:02.815Z,1.90
2023-03-18T16:35:17.449Z,1.60
2023-03-18T16:36:44.360Z,1.52
2023-03-18T16:37:49.242Z,2.28
2023-03-18T16:38:52.869Z,2.03
2023-03-18T16:39:57.393Z,1.70
2023-03-18T16:41:01.681Z,1.60
2023-03-18T16:42:10.598Z,1.92
2023-03-18T16:43:22.411Z,2.70
2023-03-18T16:44:31.162Z,2.47
2023-03-18T16:45:37.580Z,1.90
2023-03-18T16:46:44.074Z,2.30
2023-03-18T16:47:52.045Z,2.08
2023-03-18T16:49:03.434Z,1.70
2023-03-18T16:50:19.217Z,2.40
2023-03-18T16:51:24.762Z,1.73
2023-03-18T16:52:28.674Z,1.60
2023-03-18T16:53:34.545Z,2.30
2023-03-18T16:54:41.882Z,1.58
2023-03-18T16:55:48.592Z,1.60
2023-03-18T16:56:57.557Z,2.33
2023-03-18T16:58:02.575Z,2.53
2023-03-18T16:59:14.055Z,2.10
2023-03-18T17:00:32.044Z,2.35
2023-03-18T17:01:35.860Z,2.30
2023-03-18T17:02:43.420Z,2.25
2023-03-18T17:03:48.156Z,2.60
2023-03-18T17:04:51.829Z,2.10
2023-03-18T17:05:55.577Z,2.50
2023-03-18T17:07:04.175Z,1.95
2023-03-18T17:08:08.867Z,2.10
2023-03-18T17:09:17.216Z,1.58
2023-03-18T17:10:26.028Z,1.90
2023-03-18T17:11:29.532Z,2.55
2023-03-18T17:12:33.374Z,2.80
2023-03-18T17:13:40.341Z,2.40
2023-03-18T17:14:57.788Z,2.53
2023-03-18T17:16:05.033Z,2.50
2023-03-18T17:17:29.460Z,2.20
2023-03-18T17:18:33.414Z,1.92
2023-03-18T17:19:37.229Z,2.38
2023-03-18T17:20:41.757Z,2.70
2023-03-18T17:21:45.540Z,1.75
2023-03-18T17:22:49.208Z,2.38
2023-03-18T17:23:53.449Z,2.78
2023-03-18T17:24:57.819Z,3.05
2023-03-18T17:26:03.079Z,2.40
2023-03-18T17:27:06.747Z,3.25
2023-03-18T17:28:17.797Z,3.45
2023-03-18T17:29:27.830Z,3.58
2023-03-18T17:30:40.138Z,2.35
2023-03-18T17:31:43.750Z,2.92
2023-03-18T17:32:51.794Z,2.63
2023-03-18T17:33:55.373Z,3.20
2023-03-18T17:34:59.873Z,3.40
2023-03-18T17:36:05.877Z,2.50
2023-03-18T17:37:09.655Z,2.65
2023-03-18T17:38:15.643Z,2.58
2023-03-18T17:39:22.519Z,2.58
2023-03-18T17:40:30.383Z,3.55
2023-03-18T17:41:34.052Z,2.63
2023-03-18T17:42:41.780Z,3.20
2023-03-18T17:43:48.369Z,2.65
2023-03-18T17:44:52.179Z,3.03
2023-03-18T17:45:58.244Z,3.45
2023-03-18T17:47:01.885Z,3.10
2023-03-18T17:48:22.314Z,2.85
2023-03-18T17:49:27.953Z,3.17
2023-03-18T17:50:34.868Z,3.58
2023-03-18T17:51:39.159Z,2.65
2023-03-18T17:52:43.272Z,3.45
2023-03-18T17:53:52.633Z,3.97
2023-03-18T17:54:56.290Z,4.03
2023-03-18T17:56:04.713Z,3.40
2023-03-18T17:57:14.988Z,4.20
2023-03-18T17:58:22.889Z,4.43
2023-03-18T17:59:27.601Z,3.92
2023-03-18T18:00:32.940Z,3.38
2023-03-18T18:01:40.941Z,3.92
2023-03-18T18:02:45.356Z,4.50
2023-03-18T18:03:50.575Z,5.05
2023-03-18T18:04:54.146Z,3.22
2023-03-18T18:06:02.554Z,4.25
2023-03-18T18:07:22.230Z,4.53
2023-03-18T18:08:28.454Z,5.22
2023-03-18T18:09:33.261Z,4.47
2023-03-18T18:10:37.161Z,4.60
2023-03-18T18:11:46.491Z,6.40
2023-03-18T18:12:50.325Z,4.97
2023-03-18T18:14:15.826Z,4.43
2023-03-18T18:15:26.414Z,5.28
2023-03-18T18:16:31.279Z,3.70
2023-03-18T18:17:35.064Z,4.47
2023-03-18T18:18:38.807Z,4.25
2023-03-18T18:19:44.075Z,3.40
2023-03-18T18:21:01.072Z,4.47
2023-03-18T18:22:05.159Z,5.50
2023-03-18T18:23:26.171Z,4.50
2023-03-18T18:24:33.467Z,4.72
2023-03-18T18:25:37.986Z,3.75
2023-03-18T18:26:42.051Z,4.03
2023-03-18T18:27:47.497Z,4.30
2023-03-18T18:28:52.526Z,4.90
2023-03-18T18:29:56.832Z,4.53
2023-03-18T18:31:03.286Z,5.47
2023-03-18T18:32:13.520Z,4.80
2023-03-18T18:33:19.827Z,5.05
2023-03-18T18:34:25.863Z,3.83
2023-03-18T18:35:29.692Z,4.68
2023-03-18T18:36:33.718Z,5.78
2023-03-18T18:37:37.579Z,5.15